Time;durP1;ratioP1;P1;durP2;ratioP2;P2;SDS_P1;SDS_P2;PMS_P1;PMS_P2;Temp;Humidity;BMP_temperature;BMP_pressure;BME280_temperature;BME280_humidity;BME280_pressure;Samples;Min_cycle;Max_cycle;Signal;HPM_P1;HPM_P2
2023/01/13 00:01:39;;;;;;;2.13;0.90;;;7.90;99.90;;;;;;5011486;28;20971;-77
2023/01/13 00:04:06;;;;;;;0.80;0.70;;;7.80;99.90;;;;;;5011119;28;20464;-80
2023/01/13 00:06:32;;;;;;;2.00;1.00;;;7.80;99.90;;;;;;5009558;28;20591;-78
2023/01/13 00:09:01;;;;;;;1.47;0.93;;;7.80;99.90;;;;;;5010127;28;20875;-78
2023/01/13 00:11:39;;;;;;;3.47;0.80;;;7.80;99.90;;;;;;5012285;28;20847;-78
2023/01/13 00:14:06;;;;;;;1.37;0.80;;;7.70;99.90;;;;;;5011364;28;20501;-77
2023/01/13 00:16:33;;;;;;;0.90;0.80;;;7.90;99.90;;;;;;5011643;28;20476;-79
2023/01/13 00:18:59;;;;;;;3.43;1.10;;;7.80;99.90;;;;;;5012115;28;20452;-79
2023/01/13 00:21:26;;;;;;;1.00;0.90;;;7.90;99.90;;;;;;5010096;28;20456;-77
2023/01/13 00:23:54;;;;;;;2.27;1.17;;;7.90;99.90;;;;;;5010705;28;20499;-78
2023/01/13 00:26:24;;;;;;;1.30;1.00;;;7.90;99.90;;;;;;5010873;28;20509;-79
2023/01/13 00:28:55;;;;;;;1.27;1.00;;;7.90;99.90;;;;;;5010829;28;20805;-78
2023/01/13 00:31:22;;;;;;;2.40;0.90;;;7.90;99.90;;;;;;5010920;28;20520;-79
2023/01/13 00:33:49;;;;;;;1.10;1.00;;;7.90;99.90;;;;;;5011693;28;20480;-78
2023/01/13 00:36:19;;;;;;;0.93;0.80;;;7.90;99.90;;;;;;5011618;28;20877;-77
2023/01/13 00:38:46;;;;;;;5.80;1.40;;;7.90;99.90;;;;;;5012514;28;20440;-77
2023/01/13 00:41:15;;;;;;;2.10;1.20;;;7.90;99.90;;;;;;5010908;28;20468;-77
2023/01/13 00:43:42;;;;;;;1.23;1.00;;;7.90;99.90;;;;;;5011432;28;20769;-84
2023/01/13 00:46:12;;;;;;;1.20;0.90;;;7.90;99.90;;;;;;5010758;28;20444;-78
2023/01/13 00:48:38;;;;;;;0.83;0.70;;;8.00;99.90;;;;;;5012627;28;21013;-77
2023/01/13 00:51:08;;;;;;;2.20;0.87;;;8.00;99.90;;;;;;5013297;28;20452;-77
2023/01/13 00:53:37;;;;;;;6.30;1.40;;;7.90;99.90;;;;;;5011980;28;20484;-81
2023/01/13 00:56:06;;;;;;;1.63;1.10;;;7.90;99.90;;;;;;5009211;28;20441;-80
2023/01/13 00:58:34;;;;;;;1.37;1.00;;;8.00;99.90;;;;;;5009799;28;20470;-77
2023/01/13 01:01:04;;;;;;;3.50;0.90;;;7.90;99.90;;;;;;5010538;28;20535;-78
2023/01/13 01:03:31;;;;;;;1.07;0.97;;;7.90;99.90;;;;;;5009317;28;20456;-80
2023/01/13 01:06:03;;;;;;;2.60;0.80;;;7.90;99.90;;;;;;5009027;28;20491;-77
2023/01/13 01:08:30;;;;;;;1.40;0.90;;;8.10;99.90;;;;;;5008450;28;20924;-76
2023/01/13 01:11:01;;;;;;;1.30;0.83;;;8.10;99.90;;;;;;5008052;28;20944;-77
2023/01/13 01:13:28;;;;;;;1.00;0.70;;;8.10;99.90;;;;;;5019493;28;20450;-77
2023/01/13 01:15:55;;;;;;;2.03;0.80;;;8.20;99.90;;;;;;5042639;28;20456;-80
2023/01/13 01:18:23;;;;;;;1.00;0.80;;;8.10;99.90;;;;;;5008403;28;20447;-86
2023/01/13 01:20:50;;;;;;;1.13;0.90;;;8.10;99.90;;;;;;5009060;28;20543;-82
2023/01/13 01:23:17;;;;;;;0.90;0.70;;;8.10;99.90;;;;;;5016986;28;20438;-80
2023/01/13 01:25:44;;;;;;;1.00;0.80;;;8.20;99.90;;;;;;5048089;28;20549;-79
2023/01/13 01:28:11;;;;;;;1.30;1.00;;;8.20;99.90;;;;;;5048025;28;20441;-79
2023/01/13 01:30:39;;;;;;;0.80;0.80;;;8.20;99.90;;;;;;5048956;28;20445;-79
2023/01/13 01:33:06;;;;;;;3.50;0.90;;;8.10;99.90;;;;;;5029998;28;20485;-83
2023/01/13 01:35:34;;;;;;;1.10;0.73;;;8.10;99.90;;;;;;5027887;28;20497;-82
2023/01/13 01:38:01;;;;;;;2.20;0.80;;;8.20;99.90;;;;;;5028041;28;21066;-78
2023/01/13 01:40:27;;;;;;;1.43;0.90;;;8.20;99.90;;;;;;5028563;28;20546;-80
2023/01/13 01:45:38;;;;;;;1.00;0.90;;;8.30;99.90;;;;;;5049043;28;20988;-82
2023/01/13 01:48:07;;;;;;;0.90;0.80;;;8.20;99.90;;;;;;5050104;28;20481;-80
2023/01/13 01:50:35;;;;;;;0.90;0.80;;;8.10;99.90;;;;;;5011953;28;20475;-84
2023/01/13 01:53:08;;;;;;;4.30;1.20;;;8.00;99.90;;;;;;5009373;28;20855;-80
2023/01/13 01:55:37;;;;;;;0.93;0.80;;;8.10;99.90;;;;;;5010365;28;20488;-87
2023/01/13 01:58:10;;;;;;;0.90;0.73;;;8.10;99.90;;;;;;5014648;28;20864;-81
2023/01/13 02:00:37;;;;;;;1.00;0.90;;;8.20;99.90;;;;;;5025155;28;20455;-79
2023/01/13 02:03:04;;;;;;;2.93;0.90;;;8.10;99.90;;;;;;5033592;28;20455;-81
2023/01/13 02:05:33;;;;;;;0.80;0.67;;;8.20;99.90;;;;;;5021602;28;20492;-79
2023/01/13 02:08:02;;;;;;;2.90;0.70;;;8.20;99.90;;;;;;5012208;28;20504;-77
2023/01/13 02:10:31;;;;;;;1.70;0.90;;;8.20;99.90;;;;;;5012403;28;20452;-78
2023/01/13 02:12:59;;;;;;;2.00;0.87;;;8.30;99.90;;;;;;5013059;28;20491;-84
2023/01/13 02:15:32;;;;;;;1.07;0.70;;;8.30;99.90;;;;;;5012447;28;20559;-81
2023/01/13 02:18:10;;;;;;;1.57;0.70;;;8.30;99.90;;;;;;5011352;28;20459;-86
2023/01/13 02:21:01;;;;;;;1.00;0.80;;;8.30;99.90;;;;;;5013568;28;20429;-78
2023/01/13 02:27:28;;;;;;;1.40;0.80;;;8.40;99.90;;;;;;4965909;28;20444;-79
2023/01/13 02:33:10;;;;;;;1.57;0.80;;;8.40;99.90;;;;;;5009182;28;20839;-81
2023/01/13 02:35:45;;;;;;;1.30;1.20;;;8.10;99.90;;;;;;5016019;28;20494;-78
2023/01/13 02:38:15;;;;;;;1.00;0.90;;;8.40;99.90;;;;;;5015688;28;20462;-81
2023/01/13 02:40:47;;;;;;;1.00;0.90;;;8.60;99.90;;;;;;5028898;28;20463;-78
2023/01/13 02:46:10;;;;;;;1.77;0.80;;;8.40;99.90;;;;;;5030428;28;20703;-77
2023/01/13 02:48:40;;;;;;;1.17;0.80;;;8.30;99.90;;;;;;5029730;28;20884;-77
2023/01/13 02:51:11;;;;;;;1.00;0.80;;;8.30;99.90;;;;;;5030008;28;20467;-78
2023/01/13 02:53:43;;;;;;;3.13;0.90;;;8.30;99.90;;;;;;5030857;28;20432;-78
2023/01/13 02:56:11;;;;;;;0.90;0.70;;;8.40;99.90;;;;;;5017186;28;20480;-77
2023/01/13 02:58:40;;;;;;;1.80;0.80;;;8.40;99.90;;;;;;5011426;28;20454;-77
2023/01/13 03:01:08;;;;;;;0.83;0.80;;;8.30;99.90;;;;;;5010622;28;20448;-77
2023/01/13 03:03:35;;;;;;;0.83;0.80;;;8.40;99.90;;;;;;5010218;28;20846;-78
2023/01/13 03:06:14;;;;;;;1.17;0.70;;;8.30;99.90;;;;;;5010277;28;20484;-77
2023/01/13 03:08:46;;;;;;;1.37;0.83;;;8.30;99.90;;;;;;5010375;28;20460;-77
2023/01/13 03:11:14;;;;;;;1.47;0.80;;;8.30;99.90;;;;;;5010158;28;20464;-77
2023/01/13 03:13:55;;;;;;;1.07;0.70;;;8.30;99.90;;;;;;5020245;28;21176;-77
2023/01/13 03:16:30;;;;;;;1.00;0.90;;;8.20;99.90;;;;;;5029674;28;20443;-77
2023/01/13 03:19:12;;;;;;;1.67;0.80;;;8.20;99.90;;;;;;5030008;28;20530;-77
2023/01/13 03:21:45;;;;;;;2.23;0.80;;;8.20;99.90;;;;;;5030055;28;20447;-77
2023/01/13 03:24:17;;;;;;;0.90;0.70;;;8.20;99.90;;;;;;5041272;28;20469;-78
2023/01/13 03:26:47;;;;;;;1.10;0.60;;;8.30;99.90;;;;;;5039306;28;20565;-77
2023/01/13 03:29:20;;;;;;;2.80;0.90;;;8.30;99.90;;;;;;5009761;28;20685;-77
2023/01/13 03:31:56;;;;;;;1.83;0.80;;;8.40;99.90;;;;;;5010626;28;20539;-78
2023/01/13 03:34:26;;;;;;;1.10;0.70;;;8.40;99.90;;;;;;5010479;28;20483;-77
2023/01/13 03:36:55;;;;;;;1.23;0.80;;;8.30;99.90;;;;;;5009975;28;20460;-77
2023/01/13 03:39:29;;;;;;;1.03;0.70;;;8.50;99.90;;;;;;5009697;28;20470;-77
2023/01/13 03:42:00;;;;;;;1.07;0.70;;;8.60;99.90;;;;;;5009815;28;20460;-77
2023/01/13 03:44:31;;;;;;;1.43;0.90;;;8.60;99.90;;;;;;5022180;28;20486;-77
2023/01/13 03:47:10;;;;;;;0.80;0.70;;;8.50;99.90;;;;;;5029887;28;20490;-77
2023/01/13 03:49:41;;;;;;;1.67;0.80;;;8.40;99.90;;;;;;5029012;28;20975;-77
2023/01/13 03:52:12;;;;;;;0.80;0.60;;;8.50;99.90;;;;;;5029205;28;20528;-77
2023/01/13 03:54:44;;;;;;;0.80;0.70;;;8.40;99.90;;;;;;5028905;28;20507;-77
2023/01/13 03:57:15;;;;;;;1.00;0.70;;;8.40;99.90;;;;;;5029320;28;20953;-77
2023/01/13 03:59:47;;;;;;;0.70;0.60;;;8.40;99.90;;;;;;5020349;28;20475;-78
2023/01/13 04:02:19;;;;;;;1.00;0.70;;;8.40;99.90;;;;;;5009066;28;20491;-77
2023/01/13 04:04:50;;;;;;;0.70;0.60;;;8.40;99.90;;;;;;5008950;28;20475;-77
2023/01/13 04:07:27;;;;;;;0.90;0.70;;;8.40;99.90;;;;;;5009878;28;20924;-77
2023/01/13 04:09:56;;;;;;;1.07;0.70;;;8.50;99.90;;;;;;5010531;28;20452;-83
2023/01/13 04:12:59;;;;;;;0.90;0.70;;;8.70;99.90;;;;;;5010135;28;20535;-77
2023/01/13 04:15:15;;;;;;;2.20;0.73;;;8.60;99.90;;;;;;5016726;28;20569;-77
2023/01/13 04:17:44;;;;;;;1.27;0.80;;;8.60;99.90;;;;;;5029902;28;20988;-77
2023/01/13 04:20:11;;;;;;;1.60;0.63;;;8.60;99.90;;;;;;5034412;28;20443;-79
2023/01/13 04:22:38;;;;;;;0.90;0.80;;;8.70;99.90;;;;;;5031879;28;20436;-85
2023/01/13 04:25:05;;;;;;;0.90;0.80;;;8.70;99.90;;;;;;5030505;28;20456;-77
2023/01/13 04:27:32;;;;;;;0.87;0.70;;;8.70;99.90;;;;;;5029777;28;20439;-79
2023/01/13 04:29:59;;;;;;;0.87;0.70;;;8.80;99.90;;;;;;5043119;28;20455;-78
2023/01/13 04:32:26;;;;;;;2.30;0.80;;;8.90;99.90;;;;;;5024190;28;20860;-79
2023/01/13 04:34:54;;;;;;;6.67;0.97;;;8.90;99.90;;;;;;5023715;28;20482;-80
2023/01/13 04:37:21;;;;;;;0.97;0.87;;;8.90;99.90;;;;;;5024198;28;20448;-79
2023/01/13 04:39:48;;;;;;;2.27;0.80;;;9.00;99.90;;;;;;5012840;28;20448;-82
2023/01/13 04:42:15;;;;;;;3.37;0.67;;;9.00;99.90;;;;;;5010858;28;20606;-78
2023/01/13 04:44:41;;;;;;;1.23;0.90;;;9.00;99.90;;;;;;5033105;28;20443;-79
2023/01/13 04:47:08;;;;;;;1.03;0.80;;;9.10;99.90;;;;;;5049487;28;20446;-79
2023/01/13 04:49:35;;;;;;;1.53;0.77;;;9.20;99.90;;;;;;5012391;28;20491;-80
2023/01/13 04:52:05;;;;;;;1.90;1.00;;;9.20;99.90;;;;;;5011021;28;20495;-79
2023/01/13 04:54:32;;;;;;;0.80;0.70;;;9.10;99.90;;;;;;5010226;28;20463;-78
2023/01/13 04:56:59;;;;;;;1.23;0.87;;;9.30;99.90;;;;;;5010895;28;20468;-78
2023/01/13 04:59:26;;;;;;;1.10;0.80;;;9.20;99.90;;;;;;5009727;28;20456;-81
2023/01/13 05:01:53;;;;;;;2.17;1.10;;;9.30;99.90;;;;;;5023893;28;20500;-80
2023/01/13 05:04:19;;;;;;;1.00;0.70;;;9.30;99.90;;;;;;5007901;28;20550;-78
2023/01/13 05:06:46;;;;;;;1.40;0.97;;;9.30;99.90;;;;;;5009445;28;20527;-78
2023/01/13 05:09:14;;;;;;;1.00;0.80;;;9.30;99.90;;;;;;5010178;28;20443;-81
2023/01/13 05:17:19;;;;;;;0.97;0.80;;;9.30;99.90;;;;;;4954474;28;20453;-77
2023/01/13 05:19:46;;;;;;;1.10;0.83;;;9.30;99.90;;;;;;5008646;28;20448;-79
2023/01/13 05:27:43;;;;;;;0.87;0.77;;;9.50;99.90;;;;;;5028895;28;20965;-86
2023/01/13 05:30:11;;;;;;;1.00;0.73;;;9.50;99.90;;;;;;5032348;28;20462;-80
2023/01/13 05:32:38;;;;;;;1.00;0.80;;;9.40;99.90;;;;;;5036302;28;20436;-80
2023/01/13 05:35:05;;;;;;;0.80;0.70;;;9.40;99.90;;;;;;5036461;28;20479;-81
2023/01/13 05:37:32;;;;;;;1.00;0.80;;;9.40;99.90;;;;;;5028597;28;20472;-79
2023/01/13 05:45:30;;;;;;;0.80;0.70;;;9.40;99.90;;;;;;5036288;28;20456;-86
2023/01/13 05:47:58;;;;;;;1.20;0.87;;;9.50;99.90;;;;;;5040298;28;20462;-85
2023/01/13 05:50:25;;;;;;;6.57;1.20;;;9.50;99.90;;;;;;5025979;28;20452;-83
2023/01/13 05:52:52;;;;;;;0.80;0.70;;;9.50;99.90;;;;;;5015782;28;20487;-83
2023/01/13 05:55:20;;;;;;;0.90;0.70;;;9.50;99.90;;;;;;5007934;28;20496;-80
2023/01/13 05:57:47;;;;;;;2.13;0.87;;;9.40;99.90;;;;;;5047755;28;20950;-86
2023/01/13 06:00:14;;;;;;;2.00;1.20;;;9.40;99.90;;;;;;5053040;28;20455;-80
2023/01/13 06:02:41;;;;;;;1.10;1.00;;;9.40;99.90;;;;;;5035630;28;20436;-82
2023/01/13 06:05:09;;;;;;;0.90;0.80;;;9.40;99.90;;;;;;5026721;28;20495;-79
2023/01/13 06:07:35;;;;;;;0.80;0.70;;;9.30;99.90;;;;;;5007376;28;20447;-76
2023/01/13 06:10:02;;;;;;;1.27;0.90;;;9.50;99.90;;;;;;5014456;28;20469;-76
2023/01/13 06:12:30;;;;;;;1.93;0.90;;;9.60;99.90;;;;;;5022077;28;20483;-76
2023/01/13 06:14:57;;;;;;;0.90;0.80;;;9.50;99.90;;;;;;5033636;28;20467;-74
2023/01/13 06:17:24;;;;;;;1.17;0.70;;;9.50;99.90;;;;;;5030684;28;20454;-74
2023/01/13 06:19:51;;;;;;;1.00;0.70;;;9.60;99.90;;;;;;5029094;28;20824;-78
2023/01/13 06:22:20;;;;;;;1.23;0.80;;;9.60;99.90;;;;;;5020193;28;20467;-79
2023/01/13 06:24:48;;;;;;;0.90;0.70;;;9.60;99.90;;;;;;5035779;28;20460;-80
2023/01/13 06:27:15;;;;;;;1.00;0.83;;;9.60;99.90;;;;;;5019494;28;20467;-80
2023/01/13 06:29:44;;;;;;;0.90;0.80;;;9.60;99.90;;;;;;5024883;28;20469;-83
2023/01/13 06:32:16;;;;;;;0.90;0.60;;;9.50;99.90;;;;;;5050830;28;20438;-83
2023/01/13 06:34:46;;;;;;;1.10;0.80;;;9.60;99.90;;;;;;5050759;28;20466;-86
2023/01/13 06:37:16;;;;;;;0.80;0.70;;;9.60;99.90;;;;;;5050451;28;20867;-83
2023/01/13 06:39:43;;;;;;;0.97;0.87;;;9.50;99.90;;;;;;5034685;28;20435;-86
2023/01/13 06:44:56;;;;;;;1.07;0.80;;;9.50;99.90;;;;;;5031842;28;20429;-76
2023/01/13 06:47:23;;;;;;;1.47;0.90;;;9.60;99.90;;;;;;5032100;28;20474;-82
2023/01/13 06:49:49;;;;;;;0.80;0.80;;;9.40;99.90;;;;;;5041579;28;20470;-78
2023/01/13 06:52:16;;;;;;;1.37;0.90;;;9.40;99.90;;;;;;5030280;28;20459;-81
2023/01/13 06:54:43;;;;;;;2.20;0.90;;;9.40;99.90;;;;;;5029996;28;20436;-77
2023/01/13 06:57:10;;;;;;;1.40;0.90;;;9.30;99.90;;;;;;5028835;28;21107;-74
2023/01/13 06:59:36;;;;;;;0.90;0.70;;;9.40;99.90;;;;;;5026560;28;20678;-78
2023/01/13 07:02:04;;;;;;;0.90;0.80;;;9.50;99.90;;;;;;5042368;28;20458;-79
2023/01/13 07:04:31;;;;;;;1.10;1.00;;;9.40;99.90;;;;;;5024357;28;20451;-74
2023/01/13 07:06:58;;;;;;;0.97;0.80;;;9.40;99.90;;;;;;5042655;28;20473;-76
2023/01/13 07:09:25;;;;;;;1.67;0.77;;;9.30;99.90;;;;;;5050311;28;20443;-78
2023/01/13 07:11:52;;;;;;;5.13;1.03;;;9.30;99.90;;;;;;5049493;28;20453;-75
2023/01/13 07:17:04;;;;;;;1.30;1.00;;;9.30;99.90;;;;;;5049763;28;21000;-79
2023/01/13 07:19:31;;;;;;;2.07;0.80;;;9.30;99.90;;;;;;5046723;28;20438;-81
2023/01/13 07:21:59;;;;;;;2.47;0.90;;;9.20;99.90;;;;;;5010320;28;20543;-78
2023/01/13 07:24:25;;;;;;;1.50;1.00;;;9.20;99.90;;;;;;5019832;28;20522;-74
2023/01/13 07:26:52;;;;;;;1.00;0.90;;;9.30;99.90;;;;;;5010303;28;20903;-78
2023/01/13 07:29:19;;;;;;;1.40;0.90;;;9.20;99.90;;;;;;5013310;28;20458;-76
2023/01/13 07:31:46;;;;;;;0.90;0.80;;;9.20;99.90;;;;;;5013231;28;20452;-75
2023/01/13 07:34:14;;;;;;;1.77;1.27;;;9.20;99.90;;;;;;5016197;28;20650;-73
2023/01/13 07:36:41;;;;;;;2.20;1.00;;;9.20;99.90;;;;;;5017559;28;20496;-76
2023/01/13 07:39:08;;;;;;;2.60;1.00;;;9.30;99.90;;;;;;5008566;28;20459;-74
2023/01/13 07:44:19;;;;;;;3.70;1.03;;;9.20;99.90;;;;;;5030821;28;20443;-74
2023/01/13 07:46:46;;;;;;;0.80;0.80;;;9.20;99.90;;;;;;5027944;28;20538;-78
2023/01/13 07:49:14;;;;;;;0.90;0.80;;;9.20;99.90;;;;;;5032145;28;20468;-79
2023/01/13 07:51:41;;;;;;;3.53;1.03;;;9.20;99.90;;;;;;5036486;28;20450;-78
2023/01/13 07:54:08;;;;;;;1.33;1.00;;;9.20;99.90;;;;;;5037062;28;20462;-75
2023/01/13 07:56:35;;;;;;;1.53;0.90;;;9.20;99.90;;;;;;5037826;28;20570;-79
2023/01/13 07:59:02;;;;;;;0.90;0.80;;;9.30;99.90;;;;;;5038126;28;20434;-77
2023/01/13 08:01:30;;;;;;;1.47;0.80;;;9.30;99.90;;;;;;5037729;28;20950;-74
2023/01/13 08:03:57;;;;;;;1.00;0.90;;;9.30;99.90;;;;;;5038300;28;20446;-75
2023/01/13 08:06:26;;;;;;;1.97;1.00;;;9.30;99.90;;;;;;5040440;28;20565;-77
2023/01/13 08:08:53;;;;;;;1.10;0.83;;;9.30;99.90;;;;;;5039359;28;20805;-77
2023/01/13 08:11:20;;;;;;;1.00;0.90;;;9.40;99.90;;;;;;5035787;28;20456;-75
2023/01/13 08:13:46;;;;;;;1.03;0.90;;;9.40;99.90;;;;;;5038412;28;20415;-73
2023/01/13 08:16:15;;;;;;;5.80;1.10;;;9.40;99.90;;;;;;5036862;28;20854;-75
2023/01/13 08:18:42;;;;;;;1.07;0.80;;;9.40;99.90;;;;;;5036210;28;20448;-76
2023/01/13 08:21:11;;;;;;;1.57;0.80;;;9.40;99.90;;;;;;5037483;28;20445;-79
2023/01/13 08:23:39;;;;;;;1.23;0.90;;;9.40;99.90;;;;;;5037176;28;20907;-70
2023/01/13 08:26:08;;;;;;;1.23;1.13;;;9.40;99.90;;;;;;5028891;28;20487;-70
2023/01/13 08:28:35;;;;;;;1.10;1.00;;;9.50;99.90;;;;;;5028485;28;20877;-75
2023/01/13 08:31:03;;;;;;;6.33;1.03;;;9.60;99.90;;;;;;5027867;28;20843;-75
2023/01/13 08:33:31;;;;;;;1.43;0.80;;;9.50;99.90;;;;;;5026544;28;20504;-74
2023/01/13 08:35:58;;;;;;;2.77;1.20;;;9.50;99.90;;;;;;5023559;28;20486;-73
2023/01/13 08:38:25;;;;;;;1.00;0.90;;;9.60;99.90;;;;;;5028994;28;20562;-72
2023/01/13 08:40:53;;;;;;;1.47;0.90;;;9.60;99.90;;;;;;5018668;28;20531;-72
2023/01/13 08:43:20;;;;;;;1.43;1.30;;;9.60;99.90;;;;;;5017676;28;20972;-79
2023/01/13 08:45:58;;;;;;;1.07;0.97;;;9.60;99.90;;;;;;5023688;28;20546;-79
2023/01/13 08:48:25;;;;;;;1.67;1.07;;;9.60;99.90;;;;;;5025955;28;20970;-78
2023/01/13 08:50:53;;;;;;;1.27;0.90;;;9.60;99.90;;;;;;5026104;28;20451;-77
2023/01/13 08:53:20;;;;;;;1.57;0.90;;;9.60;99.90;;;;;;5025937;28;20459;-82
2023/01/13 08:55:47;;;;;;;2.10;0.90;;;9.60;99.90;;;;;;5026056;28;20452;-81
2023/01/13 08:58:15;;;;;;;1.57;0.90;;;9.60;99.90;;;;;;5026436;28;20447;-76
2023/01/13 09:00:43;;;;;;;0.90;0.83;;;9.70;99.90;;;;;;5012171;28;20474;-74
2023/01/13 09:03:10;;;;;;;1.40;0.70;;;9.80;99.90;;;;;;5024696;28;20481;-74
2023/01/13 09:05:37;;;;;;;1.10;1.00;;;9.80;99.90;;;;;;5026490;28;20579;-75
2023/01/13 09:08:03;;;;;;;0.90;0.80;;;9.90;99.90;;;;;;5023834;28;20467;-78
2023/01/13 09:10:31;;;;;;;1.37;0.90;;;9.90;99.90;;;;;;5030501;28;20972;-76
2023/01/13 09:13:12;;;;;;;1.10;0.90;;;9.90;99.90;;;;;;5031240;28;20447;-75
2023/01/13 09:15:41;;;;;;;1.57;1.17;;;10.00;99.90;;;;;;5032715;28;20455;-75
2023/01/13 09:18:08;;;;;;;0.97;0.80;;;10.00;99.90;;;;;;5010577;28;20859;-74
2023/01/13 09:20:35;;;;;;;1.27;0.90;;;10.00;99.90;;;;;;5007709;28;20441;-75
2023/01/13 09:23:02;;;;;;;1.50;0.90;;;10.20;99.90;;;;;;5010448;28;20444;-72
2023/01/13 09:25:31;;;;;;;0.90;0.80;;;10.20;99.90;;;;;;5047058;28;20461;-72
2023/01/13 09:27:58;;;;;;;1.13;1.03;;;10.30;99.90;;;;;;5046948;28;20465;-72
2023/01/13 09:30:25;;;;;;;1.07;0.97;;;10.30;99.90;;;;;;5047223;28;20563;-75
2023/01/13 09:34:58;;;;;;;5.10;1.30;;;10.30;99.90;;;;;;5041566;28;20472;-75
2023/01/13 09:35:39;;;;;;;2.00;1.00;;;10.30;99.90;;;;;;5025041;28;20467;-74
2023/01/13 09:38:07;;;;;;;1.13;0.90;;;10.30;99.90;;;;;;5024592;28;20625;-74
2023/01/13 09:40:35;;;;;;;1.00;0.80;;;10.30;99.90;;;;;;5036945;28;20204;-72
2023/01/13 09:46:02;;;;;;;1.43;1.10;;;10.40;99.90;;;;;;4997024;28;20448;-73
2023/01/13 09:48:32;;;;;;;1.10;1.00;;;10.40;99.90;;;;;;5008797;28;20494;-76
2023/01/13 09:51:06;;;;;;;1.60;1.10;;;10.50;99.90;;;;;;5027333;28;20465;-77
2023/01/13 09:53:37;;;;;;;1.50;0.80;;;10.60;99.90;;;;;;5026714;28;20443;-74
2023/01/13 09:56:05;;;;;;;1.20;0.90;;;10.60;99.90;;;;;;5027195;28;20455;-75
2023/01/13 09:58:33;;;;;;;2.03;0.90;;;10.60;99.90;;;;;;5027009;28;20478;-80
2023/01/13 10:01:18;;;;;;;3.20;0.97;;;10.70;99.90;;;;;;5020836;28;20463;-73
2023/01/13 10:03:48;;;;;;;4.93;0.97;;;10.80;99.90;;;;;;5007550;28;20495;-77
2023/01/13 10:06:20;;;;;;;0.93;0.83;;;10.70;99.90;;;;;;5038072;28;20563;-73
2023/01/13 10:08:49;;;;;;;1.10;0.83;;;10.80;99.90;;;;;;5046373;28;20980;-73
2023/01/13 10:14:10;;;;;;;0.80;0.70;;;10.80;99.90;;;;;;5047033;28;20496;-76
2023/01/13 10:16:44;;;;;;;0.80;0.70;;;10.70;99.90;;;;;;5046621;28;20481;-75
2023/01/13 10:19:18;;;;;;;3.13;0.80;;;10.80;99.90;;;;;;5046848;28;20500;-77
2023/01/13 10:22:18;;;;;;;1.63;0.73;;;10.80;99.90;;;;;;5034574;28;20555;-76
2023/01/13 10:25:17;;;;;;;1.03;0.93;;;10.80;99.90;;;;;;5002284;28;20459;-78
2023/01/13 10:27:48;;;;;;;1.00;0.80;;;10.90;99.90;;;;;;5005795;28;20452;-77
2023/01/13 10:30:21;;;;;;;1.40;1.30;;;10.90;99.90;;;;;;5022874;28;20452;-79
2023/01/13 10:32:53;;;;;;;1.83;0.70;;;10.90;99.90;;;;;;5026644;28;20455;-81
2023/01/13 10:35:52;;;;;;;1.00;0.90;;;10.90;99.90;;;;;;5026688;28;20458;-78
2023/01/13 10:38:21;;;;;;;1.13;0.80;;;10.80;99.90;;;;;;5024162;28;20505;-77
2023/01/13 10:40:50;;;;;;;1.30;0.90;;;10.90;99.90;;;;;;5007133;28;20513;-76
2023/01/13 10:43:17;;;;;;;0.83;0.70;;;11.00;99.90;;;;;;5007224;28;20456;-73
2023/01/13 10:45:55;;;;;;;1.30;0.70;;;11.00;99.90;;;;;;5015143;28;20562;-74
2023/01/13 10:48:22;;;;;;;2.30;0.80;;;11.20;99.90;;;;;;5023177;28;20471;-78
2023/01/13 10:50:51;;;;;;;1.93;0.80;;;11.30;99.90;;;;;;5027846;28;20463;-80
2023/01/13 10:53:19;;;;;;;0.90;0.70;;;11.30;99.90;;;;;;5032201;28;20586;-75
2023/01/13 10:55:59;;;;;;;0.97;0.87;;;11.30;99.90;;;;;;5009074;28;20460;-73
2023/01/13 10:58:27;;;;;;;2.80;0.90;;;11.40;99.90;;;;;;5010419;28;20521;-74
2023/01/13 11:01:00;;;;;;;1.10;0.90;;;11.50;99.90;;;;;;5011266;28;20559;-76
2023/01/13 11:03:36;;;;;;;1.00;0.90;;;11.60;99.90;;;;;;5010321;28;20428;-78
2023/01/13 11:06:05;;;;;;;0.90;0.70;;;11.50;99.90;;;;;;5010295;28;21194;-75
2023/01/13 11:08:43;;;;;;;1.77;0.80;;;11.50;99.90;;;;;;5010163;28;20863;-74
2023/01/13 11:11:26;;;;;;;1.80;0.90;;;11.40;99.90;;;;;;5009810;28;20448;-73
2023/01/13 11:16:43;;;;;;;1.10;0.90;;;11.00;99.90;;;;;;5010143;28;20479;-73
2023/01/13 11:19:16;;;;;;;1.23;0.90;;;10.80;99.90;;;;;;5019278;28;20467;-72
2023/01/13 11:21:52;;;;;;;2.13;0.90;;;10.80;99.90;;;;;;5023583;28;20994;-76
2023/01/13 11:24:27;;;;;;;6.30;4.10;;;10.40;99.90;;;;;;5009567;28;20847;-68
2023/01/13 11:26:58;;;;;;;1.20;0.80;;;10.50;99.90;;;;;;5028729;28;20457;-79
2023/01/13 11:29:31;;;;;;;0.80;0.70;;;10.50;99.90;;;;;;5013588;28;21183;-76
2023/01/13 11:32:08;;;;;;;1.20;0.80;;;10.50;99.90;;;;;;5010671;28;21231;-78
2023/01/13 11:34:37;;;;;;;1.00;0.90;;;10.60;99.90;;;;;;5010361;28;20458;-76
2023/01/13 11:37:20;;;;;;;1.53;0.80;;;10.70;99.90;;;;;;5012253;28;20487;-78
2023/01/13 11:39:54;;;;;;;1.00;0.90;;;10.70;99.90;;;;;;5021087;28;20818;-74
2023/01/13 11:42:25;;;;;;;1.00;0.80;;;10.70;99.90;;;;;;5029722;28;20482;-75
2023/01/13 11:45:03;;;;;;;1.37;0.77;;;10.70;99.90;;;;;;5020380;28;21097;-75
2023/01/13 11:47:31;;;;;;;1.67;0.80;;;10.70;99.90;;;;;;5028903;28;20570;-75
2023/01/13 11:49:58;;;;;;;0.80;0.70;;;10.70;99.90;;;;;;5029035;28;20443;-77
2023/01/13 11:52:43;;;;;;;0.80;0.77;;;10.70;99.90;;;;;;5028372;28;20456;-77
2023/01/13 11:55:21;;;;;;;0.93;0.80;;;10.70;99.90;;;;;;5029094;28;20982;-75
2023/01/13 11:58:20;;;;;;;0.87;0.73;;;11.00;99.90;;;;;;5028601;28;21024;-74
2023/01/13 12:01:08;;;;;;;0.90;0.90;;;11.00;99.90;;;;;;5021000;28;20463;-76
2023/01/13 12:03:41;;;;;;;0.80;0.70;;;10.90;99.90;;;;;;5028883;28;20931;-75
2023/01/13 12:06:21;;;;;;;1.90;0.93;;;10.90;99.90;;;;;;5028109;28;20476;-76
2023/01/13 12:09:10;;;;;;;0.80;0.80;;;10.90;99.90;;;;;;5028566;28;20444;-76
2023/01/13 12:14:41;;;;;;;0.90;0.80;;;10.70;99.90;;;;;;5027414;28;20452;-77
2023/01/13 12:17:17;;;;;;;0.90;0.70;;;10.60;99.90;;;;;;5011350;28;20476;-79
2023/01/13 12:19:49;;;;;;;0.83;0.80;;;10.60;99.90;;;;;;5008697;28;20462;-78
2023/01/13 12:22:20;;;;;;;1.60;1.03;;;10.80;99.90;;;;;;5023021;28;20533;-77
2023/01/13 12:24:53;;;;;;;0.80;0.70;;;10.70;99.90;;;;;;5028559;28;21049;-77
2023/01/13 12:27:26;;;;;;;1.00;0.90;;;10.70;99.90;;;;;;5028573;28;21187;-76
2023/01/13 12:29:58;;;;;;;2.70;0.83;;;10.50;99.90;;;;;;5028073;28;20455;-73
2023/01/13 12:32:33;;;;;;;1.80;0.87;;;10.40;99.90;;;;;;5033257;28;20509;-74
2023/01/13 12:35:17;;;;;;;1.53;1.17;;;10.40;99.90;;;;;;5035485;28;20443;-75
2023/01/13 12:37:50;;;;;;;1.00;0.90;;;10.40;99.90;;;;;;5037725;28;20544;-74
2023/01/13 12:40:28;;;;;;;3.00;1.30;;;10.40;99.90;;;;;;5036484;28;20483;-73
2023/01/13 12:45:48;;;;;;;1.77;1.20;;;10.20;99.90;;;;;;5035469;28;20941;-75
2023/01/13 12:48:45;;;;;;;2.80;0.80;;;10.20;99.90;;;;;;5037624;28;20448;-77
2023/01/13 12:51:23;;;;;;;0.80;0.70;;;10.10;99.90;;;;;;5030657;28;20483;-76
2023/01/13 12:53:50;;;;;;;1.10;0.70;;;9.90;99.90;;;;;;5035457;28;20531;-77
2023/01/13 12:56:40;;;;;;;1.30;0.70;;;9.90;99.90;;;;;;5036896;28;20484;-74
2023/01/13 12:59:33;;;;;;;2.70;0.87;;;9.70;99.90;;;;;;5035111;28;21069;-74
2023/01/13 13:02:32;;;;;;;1.10;0.90;;;9.60;99.90;;;;;;5039815;28;20447;-74
2023/01/13 13:05:16;;;;;;;1.13;0.80;;;9.60;99.90;;;;;;5034474;28;20830;-77
2023/01/13 13:07:47;;;;;;;1.10;0.87;;;9.40;99.90;;;;;;5022587;28;20951;-78
2023/01/13 13:10:19;;;;;;;1.10;1.00;;;9.30;99.90;;;;;;5035771;28;20439;-75
2023/01/13 13:13:18;;;;;;;1.00;0.80;;;9.50;99.90;;;;;;5032998;28;20523;-76
2023/01/13 13:15:45;;;;;;;2.00;0.80;;;9.50;99.90;;;;;;5032651;28;20428;-70
2023/01/13 13:18:36;;;;;;;2.60;1.10;;;9.70;99.90;;;;;;5038432;28;20513;-75
2023/01/13 13:21:05;;;;;;;1.30;0.80;;;9.90;99.90;;;;;;5012330;28;20447;-75
2023/01/13 13:24:04;;;;;;;1.10;1.00;;;9.70;99.90;;;;;;5034526;28;20460;-73
2023/01/13 13:26:36;;;;;;;1.30;1.20;;;9.80;99.90;;;;;;5007352;28;20491;-74
2023/01/13 13:29:33;;;;;;;1.70;0.83;;;9.70;99.90;;;;;;5007711;28;20447;-81
2023/01/13 13:32:34;;;;;;;4.17;1.10;;;10.20;99.90;;;;;;5007521;28;20960;-68
2023/01/13 13:35:33;;;;;;;1.00;0.90;;;10.60;99.90;;;;;;5006907;28;20460;-70
2023/01/13 13:46:49;;;;;;;0.90;0.77;;;10.00;99.90;;;;;;5007208;28;20936;-77
2023/01/13 13:49:18;;;;;;;1.00;0.90;;;10.40;99.90;;;;;;5006909;28;20854;-77
2023/01/13 13:51:51;;;;;;;0.93;0.80;;;10.10;99.90;;;;;;5018608;28;20509;-77
2023/01/13 13:54:21;;;;;;;1.07;0.97;;;9.90;99.90;;;;;;5026782;28;20505;-74
2023/01/13 13:56:50;;;;;;;0.80;0.70;;;9.80;99.90;;;;;;5006756;28;20463;-79
2023/01/13 13:59:20;;;;;;;1.27;1.00;;;9.80;99.90;;;;;;5012397;28;20491;-76
2023/01/13 14:01:59;;;;;;;1.07;0.80;;;9.80;99.90;;;;;;5027091;28;20470;-72
2023/01/13 14:04:28;;;;;;;0.87;0.70;;;10.10;99.90;;;;;;5013166;28;20562;-80
2023/01/13 14:06:57;;;;;;;4.00;0.90;;;10.40;99.90;;;;;;5007125;28;20463;-75
2023/01/13 14:09:25;;;;;;;1.20;0.83;;;9.90;99.90;;;;;;5009048;28;20555;-75
2023/01/13 14:12:02;;;;;;;1.20;0.97;;;9.60;99.90;;;;;;5015317;28;20887;-74
2023/01/13 14:14:29;;;;;;;1.67;1.30;;;9.30;99.90;;;;;;5026923;28;20518;-74
2023/01/13 14:16:58;;;;;;;1.50;0.80;;;6.80;99.90;;;;;;5010486;28;20440;-75